createdAt,value
2023-02-09T00:01:55.773Z,100673.82
2023-02-09T00:04:28.688Z,100664.82
2023-02-09T00:07:06.049Z,100656.41
2023-02-09T00:09:39.972Z,100649.16
2023-02-09T00:12:32.399Z,100640.17
2023-02-09T00:15:03.469Z,100640.25
2023-02-09T00:17:39.931Z,100641.77
2023-02-09T00:20:13.913Z,100647.08
2023-02-09T00:22:50.331Z,100648.09
2023-02-09T00:25:22.952Z,100642.25
2023-02-09T00:27:55.613Z,100635.65
2023-02-09T00:30:28.146Z,100630.38
2023-02-09T00:33:00.580Z,100627.40
2023-02-09T00:35:33.172Z,100624.00
2023-02-09T00:38:05.826Z,100623.34
2023-02-09T00:40:38.691Z,100626.45
2023-02-09T00:43:12.072Z,100627.64
2023-02-09T00:45:44.577Z,100627.29
2023-02-09T00:48:17.234Z,100629.10
2023-02-09T00:50:51.134Z,100626.98
2023-02-09T00:53:25.972Z,100628.09
2023-02-09T00:56:02.069Z,100635.38
2023-02-09T00:58:34.778Z,100632.48
2023-02-09T01:01:07.456Z,100628.66
2023-02-09T01:03:39.894Z,100633.63
2023-02-09T01:06:12.556Z,100628.55
2023-02-09T01:08:47.903Z,100627.64
2023-02-09T01:11:20.253Z,100615.88
2023-02-09T01:13:53.645Z,100600.09
2023-02-09T01:16:28.895Z,100597.98
2023-02-09T01:19:04.032Z,100597.20
2023-02-09T01:21:42.886Z,100593.70
2023-02-09T01:24:16.851Z,100593.24
2023-02-09T01:26:49.504Z,100591.64
2023-02-09T01:29:24.387Z,100587.66
2023-02-09T01:32:00.583Z,100579.65
2023-02-09T01:34:33.106Z,100582.66
2023-02-09T01:37:08.159Z,100581.12
2023-02-09T01:39:40.510Z,100590.30
2023-02-09T01:42:17.755Z,100592.24
2023-02-09T01:45:24.547Z,100597.39
2023-02-09T01:48:03.611Z,100598.89
2023-02-09T01:50:40.363Z,100599.10
2023-02-09T01:53:13.526Z,100597.77
2023-02-09T01:55:52.708Z,100596.42
2023-02-09T01:58:26.871Z,100592.90
2023-02-09T02:01:00.242Z,100589.09
2023-02-09T02:03:33.436Z,100583.23
2023-02-09T02:06:14.018Z,100578.75
2023-02-09T02:08:52.667Z,100578.91
2023-02-09T02:11:27.793Z,100578.57
2023-02-09T02:14:00.575Z,100576.83
2023-02-09T02:16:52.168Z,100570.64
2023-02-09T02:19:55.562Z,100568.06
2023-02-09T02:23:00.899Z,100561.45
2023-02-09T02:26:23.360Z,100561.46
2023-02-09T02:29:26.164Z,100558.86
2023-02-09T02:32:22.908Z,100559.57
2023-02-09T02:35:02.152Z,100555.78
2023-02-09T02:37:47.868Z,100551.05
2023-02-09T02:40:29.738Z,100543.86
2023-02-09T02:43:09.876Z,100544.05
2023-02-09T02:45:47.958Z,100534.45
2023-02-09T02:48:31.181Z,100534.73
2023-02-09T02:51:07.143Z,100522.45
2023-02-09T02:53:45.596Z,100520.20
2023-02-09T02:56:21.358Z,100516.95
2023-02-09T02:58:58.164Z,100514.55
2023-02-09T03:01:35.380Z,100516.11
2023-02-09T03:04:09.705Z,100510.97
2023-02-09T03:06:42.210Z,100512.10
2023-02-09T03:09:14.613Z,100505.53
2023-02-09T03:11:51.512Z,100501.09
2023-02-09T03:14:44.003Z,100500.77
2023-02-09T03:17:32.721Z,100499.38
2023-02-09T03:20:12.142Z,100498.88
2023-02-09T03:22:48.839Z,100498.19
2023-02-09T03:25:25.924Z,100498.17
2023-02-09T03:28:07.774Z,100501.91
2023-02-09T03:30:42.533Z,100496.14
2023-02-09T03:33:22.608Z,100494.09
2023-02-09T03:35:59.161Z,100490.67
2023-02-09T03:38:31.577Z,100484.50
2023-02-09T03:41:03.981Z,100484.98
2023-02-09T03:43:50.147Z,100480.09
2023-02-09T03:46:22.471Z,100475.07
2023-02-09T03:48:54.855Z,100470.71
2023-02-09T03:51:28.333Z,100467.27
2023-02-09T03:54:00.753Z,100467.42
2023-02-09T03:56:33.033Z,100462.10
2023-02-09T03:59:05.453Z,100461.73
2023-02-09T04:01:38.135Z,100463.27
2023-02-09T04:04:11.142Z,100462.71
2023-02-09T04:06:43.467Z,100461.30
2023-02-09T04:09:15.802Z,100457.17
2023-02-09T04:11:50.916Z,100453.51
2023-02-09T04:14:23.530Z,100448.53
2023-02-09T04:16:58.124Z,100441.48
2023-02-09T04:19:30.442Z,100442.30
2023-02-09T04:22:02.907Z,100444.04
2023-02-09T04:24:35.289Z,100450.13
2023-02-09T04:27:07.709Z,100448.59
2023-02-09T04:29:39.974Z,100444.45
2023-02-09T04:32:12.537Z,100440.63
2023-02-09T04:34:45.201Z,100440.23
2023-02-09T04:37:17.513Z,100438.11
2023-02-09T04:39:49.844Z,100435.08
2023-02-09T04:42:22.345Z,100430.91
2023-02-09T04:44:54.801Z,100429.69
2023-02-09T04:47:27.262Z,100426.41
2023-02-09T04:49:59.590Z,100421.76
2023-02-09T04:52:31.886Z,100422.27
2023-02-09T04:55:04.292Z,100415.38
2023-02-09T04:57:54.319Z,100416.02
2023-02-09T05:00:26.967Z,100419.77
2023-02-09T05:02:59.449Z,100412.98
2023-02-09T05:05:31.943Z,100412.41
2023-02-09T05:08:04.084Z,100409.63
2023-02-09T05:10:36.603Z,100412.88
2023-02-09T05:13:08.974Z,100416.00
2023-02-09T05:15:41.254Z,100426.41
2023-02-09T05:18:13.508Z,100428.59
2023-02-09T05:20:49.921Z,100429.87
2023-02-09T05:23:22.440Z,100430.34
2023-02-09T05:25:55.127Z,100425.74
2023-02-09T05:28:27.595Z,100416.59
2023-02-09T05:30:59.916Z,100411.52
2023-02-09T05:33:32.527Z,100411.39
2023-02-09T05:36:09.304Z,100412.35
2023-02-09T05:38:42.220Z,100410.10
2023-02-09T05:41:36.360Z,100407.54
2023-02-09T05:44:08.904Z,100401.55
2023-02-09T05:46:41.516Z,100396.55
2023-02-09T05:49:13.930Z,100409.36
2023-02-09T05:51:46.165Z,100419.83
2023-02-09T05:54:18.385Z,100423.36
2023-02-09T05:56:50.687Z,100428.67
2023-02-09T05:59:23.317Z,100438.83
2023-02-09T06:01:55.630Z,100442.13
2023-02-09T06:04:28.688Z,100442.83
2023-02-09T06:07:01.394Z,100436.59
2023-02-09T06:09:33.869Z,100432.05
2023-02-09T06:12:06.633Z,100429.14
2023-02-09T06:14:38.886Z,100430.34
2023-02-09T06:17:11.191Z,100426.90
2023-02-09T06:19:43.553Z,100425.36
2023-02-09T06:22:15.974Z,100423.09
2023-02-09T06:24:48.798Z,100423.88
2023-02-09T06:27:21.437Z,100421.76
2023-02-09T06:29:54.033Z,100420.52
2023-02-09T06:32:26.409Z,100412.42
2023-02-09T06:34:58.802Z,100410.14
2023-02-09T06:37:31.102Z,100416.43
2023-02-09T06:40:03.444Z,100415.84
2023-02-09T06:42:44.802Z,100416.81
2023-02-09T06:45:18.806Z,100422.56
2023-02-09T06:47:51.076Z,100424.73
2023-02-09T06:50:23.882Z,100420.74
2023-02-09T06:52:58.246Z,100416.20
2023-02-09T06:55:30.557Z,100415.48
2023-02-09T06:58:02.910Z,100412.86
2023-02-09T07:00:35.493Z,100409.70
2023-02-09T07:03:07.954Z,100409.98
2023-02-09T07:05:40.468Z,100415.61
2023-02-09T07:08:12.828Z,100413.35
2023-02-09T07:10:48.115Z,100423.27
2023-02-09T07:13:20.408Z,100421.33
2023-02-09T07:15:58.900Z,100417.67
2023-02-09T07:18:33.395Z,100412.47
2023-02-09T07:21:08.665Z,100405.20
2023-02-09T07:23:41.523Z,100405.29
2023-02-09T07:26:16.718Z,100394.20
2023-02-09T07:28:52.491Z,100394.48
2023-02-09T07:31:27.318Z,100397.19
2023-02-09T07:33:59.741Z,100386.31
2023-02-09T07:36:32.113Z,100391.41
2023-02-09T07:39:05.805Z,100387.02
2023-02-09T07:41:38.491Z,100379.10
2023-02-09T07:44:11.694Z,100371.33
2023-02-09T07:46:49.771Z,100352.22
2023-02-09T07:49:22.227Z,100348.30
2023-02-09T07:55:12.336Z,100325.85
2023-02-09T07:57:44.599Z,100309.88
2023-02-09T08:00:20.915Z,100295.79
2023-02-09T08:02:53.855Z,100269.59
2023-02-09T08:05:32.365Z,100267.45
2023-02-09T08:08:04.910Z,100274.11
2023-02-09T08:10:37.882Z,100270.27
2023-02-09T08:13:15.224Z,100271.94
2023-02-09T08:15:51.949Z,100268.67
2023-02-09T08:18:29.396Z,100270.05
2023-02-09T08:21:01.892Z,100235.04
2023-02-09T08:23:39.531Z,100190.31
2023-02-09T08:26:15.173Z,100190.81
2023-02-09T08:28:47.578Z,100191.38
2023-02-09T08:31:23.093Z,100202.03
2023-02-09T08:33:55.721Z,100170.05
2023-02-09T08:36:28.042Z,100140.83
2023-02-09T08:39:00.354Z,100137.39
2023-02-09T08:41:36.329Z,100141.14
2023-02-09T08:44:08.612Z,100146.36
2023-02-09T08:46:41.046Z,100121.08
2023-02-09T08:49:13.487Z,100091.30
2023-02-09T08:51:46.187Z,100110.52
2023-02-09T08:54:18.885Z,100042.27
2023-02-09T08:56:51.106Z,100067.59
2023-02-09T08:59:23.510Z,100059.66
2023-02-09T09:01:55.937Z,100032.60
2023-02-09T09:04:29.664Z,100010.19
2023-02-09T09:07:02.157Z,99951.18
2023-02-09T09:09:34.595Z,99965.01
2023-02-09T09:12:08.432Z,99936.98
2023-02-09T09:14:40.692Z,99908.77
2023-02-09T09:17:13.000Z,99930.67
2023-02-09T09:19:45.288Z,99924.18
2023-02-09T09:22:17.597Z,99909.84
2023-02-09T09:24:50.065Z,99886.46
2023-02-09T09:27:22.474Z,99875.14
2023-02-09T09:29:54.853Z,99850.99
2023-02-09T09:32:27.534Z,99857.72
2023-02-09T09:35:03.549Z,99820.39
2023-02-09T09:37:35.880Z,99815.32
2023-02-09T09:40:09.056Z,99809.79
2023-02-09T09:42:50.026Z,99816.06
2023-02-09T09:45:26.648Z,99797.22
2023-02-09T09:47:58.941Z,99856.64
2023-02-09T09:50:40.245Z,99924.58
2023-02-09T09:53:19.571Z,99919.86
2023-02-09T09:55:56.635Z,99911.52
2023-02-09T09:58:31.392Z,99907.50
2023-02-09T10:01:03.985Z,99922.78
2023-02-09T10:03:38.632Z,99916.40
2023-02-09T10:06:19.289Z,99910.84
2023-02-09T10:08:58.982Z,99906.18
2023-02-09T10:11:36.699Z,99925.02
2023-02-09T10:14:09.580Z,99944.81
2023-02-09T10:16:47.982Z,99980.77
2023-02-09T10:19:29.393Z,99988.48
2023-02-09T10:22:02.267Z,99984.05
2023-02-09T10:24:37.199Z,99997.77
2023-02-09T10:27:15.978Z,100003.43
2023-02-09T10:29:49.017Z,100000.11
2023-02-09T10:32:24.378Z,100002.52
2023-02-09T10:35:02.296Z,100012.84
2023-02-09T10:37:39.499Z,100007.42
2023-02-09T10:40:18.414Z,100006.23
2023-02-09T10:42:58.361Z,99993.63
2023-02-09T10:45:38.256Z,100001.30
2023-02-09T10:48:21.190Z,100001.94
2023-02-09T10:50:57.371Z,99995.77
2023-02-09T10:53:32.695Z,99990.68
2023-02-09T10:56:13.608Z,99996.95
2023-02-09T10:58:52.482Z,99995.46
2023-02-09T11:01:28.539Z,99986.41
2023-02-09T11:04:04.959Z,99993.96
2023-02-09T11:06:49.890Z,99992.03
2023-02-09T11:09:28.022Z,99981.90
2023-02-09T11:12:00.595Z,99984.15
2023-02-09T11:14:33.046Z,99991.70
2023-02-09T11:17:24.302Z,99983.36
2023-02-09T11:20:23.378Z,99995.31
2023-02-09T11:23:08.098Z,100015.38
2023-02-09T11:25:46.888Z,100014.15
2023-02-09T11:28:36.656Z,100021.29
2023-02-09T11:31:36.393Z,100018.91
2023-02-09T11:34:19.843Z,100018.73
2023-02-09T11:37:06.225Z,100017.15
2023-02-09T11:42:45.733Z,100025.25
2023-02-09T11:45:26.314Z,100022.91
2023-02-09T11:48:06.467Z,100035.06
2023-02-09T11:50:48.636Z,100044.78
2023-02-09T11:53:29.067Z,100049.79
2023-02-09T11:56:04.301Z,100049.48
2023-02-09T11:58:56.202Z,100053.31
2023-02-09T12:01:35.598Z,100056.65
2023-02-09T12:04:17.628Z,100058.63
2023-02-09T12:06:54.636Z,100059.91
2023-02-09T12:09:38.884Z,100066.44
2023-02-09T12:12:24.752Z,100060.60
2023-02-09T12:15:15.789Z,100057.23
2023-02-09T12:17:52.543Z,100052.02
2023-02-09T12:20:28.575Z,100050.13
2023-02-09T12:23:04.519Z,100053.75
2023-02-09T12:25:55.388Z,100057.65
2023-02-09T12:28:46.195Z,100056.77
2023-02-09T12:31:23.002Z,100045.11
2023-02-09T12:34:28.943Z,100040.64
2023-02-09T12:37:28.466Z,100038.18
2023-02-09T12:40:24.542Z,100034.38
2023-02-09T12:43:30.668Z,100023.52
2023-02-09T12:46:23.663Z,100025.36
2023-02-09T12:49:22.990Z,100016.39
2023-02-09T12:52:15.179Z,100003.89
2023-02-09T12:54:52.198Z,100000.05
2023-02-09T12:57:54.386Z,99986.79
2023-02-09T13:00:47.646Z,99975.12
2023-02-09T13:03:23.328Z,99963.06
2023-02-09T13:06:00.932Z,99953.77
2023-02-09T13:08:49.833Z,99948.29
2023-02-09T13:11:31.226Z,99944.98
2023-02-09T13:14:09.833Z,99936.98
2023-02-09T13:17:18.301Z,99948.32
2023-02-09T13:20:08.432Z,99951.08
2023-02-09T13:22:54.244Z,99953.91
2023-02-09T13:25:32.464Z,99951.20
2023-02-09T13:28:16.526Z,99944.38
2023-02-09T13:30:49.586Z,99932.61
2023-02-09T13:33:37.787Z,99938.17
2023-02-09T13:36:25.134Z,99934.20
2023-02-09T13:38:58.091Z,99940.89
2023-02-09T13:41:37.095Z,99942.70
2023-02-09T13:44:26.653Z,99940.27
2023-02-09T13:47:04.145Z,99941.35
2023-02-09T13:49:36.962Z,99938.91
2023-02-09T13:52:14.175Z,99934.65
2023-02-09T13:54:47.442Z,99929.83
2023-02-09T13:57:34.972Z,99924.73
2023-02-09T14:00:18.004Z,99922.69
2023-02-09T14:02:58.547Z,99926.55
2023-02-09T14:05:41.448Z,99926.26
2023-02-09T14:08:15.943Z,99927.17
2023-02-09T14:10:53.962Z,99924.33
2023-02-09T14:13:30.059Z,99929.54
2023-02-09T14:16:10.170Z,99935.09
2023-02-09T14:18:59.484Z,99934.27
2023-02-09T14:21:45.168Z,99937.79
2023-02-09T14:24:23.268Z,99937.50
2023-02-09T14:27:00.162Z,99935.88
2023-02-09T14:29:34.372Z,99932.52
2023-02-09T14:32:32.335Z,99934.35
2023-02-09T14:35:20.838Z,99930.95
2023-02-09T14:37:55.976Z,99926.59
2023-02-09T14:40:45.637Z,99924.38
2023-02-09T14:43:29.572Z,99924.98
2023-02-09T14:46:03.999Z,99930.38
2023-02-09T14:48:36.704Z,99934.98
2023-02-09T14:51:17.405Z,99939.15
2023-02-09T14:53:50.374Z,99951.28
2023-02-09T14:56:29.751Z,99954.19
2023-02-09T14:59:03.547Z,99954.50
2023-02-09T15:01:35.827Z,99952.27
2023-02-09T15:04:08.129Z,99950.09
2023-02-09T15:06:41.187Z,99954.60
2023-02-09T15:09:22.595Z,99953.99
2023-02-09T15:12:07.061Z,99950.84
2023-02-09T15:14:46.645Z,99951.33
2023-02-09T15:17:21.749Z,99950.23
2023-02-09T15:19:54.911Z,99952.11
2023-02-09T15:22:27.775Z,99950.68
2023-02-09T15:24:59.945Z,99950.85
2023-02-09T15:27:36.535Z,99951.80
2023-02-09T15:30:16.918Z,99953.34
2023-02-09T15:32:49.351Z,99957.23
2023-02-09T15:35:23.924Z,99957.80
2023-02-09T15:37:57.742Z,99960.48
2023-02-09T15:40:55.878Z,99967.12
2023-02-09T15:43:46.906Z,99974.05
2023-02-09T15:46:36.875Z,99978.40
2023-02-09T15:49:09.304Z,99979.21
2023-02-09T15:51:42.592Z,99981.61
2023-02-09T15:54:19.976Z,99979.45
2023-02-09T15:56:52.479Z,99984.02
2023-02-09T15:59:26.171Z,99987.52
2023-02-09T16:02:00.258Z,99993.49
2023-02-09T16:04:32.853Z,99995.97
2023-02-09T16:07:05.146Z,99999.68
2023-02-09T16:09:37.487Z,99996.77
2023-02-09T16:12:12.883Z,99998.17
2023-02-09T16:14:45.831Z,99998.67
2023-02-09T16:17:17.999Z,100002.42
2023-02-09T16:19:52.385Z,100001.95
2023-02-09T16:22:25.233Z,100004.70
2023-02-09T16:24:57.527Z,100002.40
2023-02-09T16:27:30.790Z,100003.42
2023-02-09T16:30:17.019Z,100006.71
2023-02-09T16:32:53.649Z,100014.36
2023-02-09T16:35:26.736Z,100017.45
2023-02-09T16:37:59.346Z,100018.28
2023-02-09T16:40:34.054Z,100012.69
2023-02-09T16:43:06.918Z,100015.76
2023-02-09T16:45:44.610Z,100021.95
2023-02-09T16:48:26.648Z,100023.44
2023-02-09T16:50:59.656Z,100026.67
2023-02-09T16:53:36.221Z,100029.21
2023-02-09T16:56:12.031Z,100032.25
2023-02-09T16:58:44.997Z,100034.05
2023-02-09T17:01:20.872Z,100030.77
2023-02-09T17:03:55.944Z,100026.98
2023-02-09T17:06:30.934Z,100028.04
2023-02-09T17:09:03.217Z,100031.36
2023-02-09T17:11:35.441Z,100035.71
2023-02-09T17:14:07.653Z,100036.61
2023-02-09T17:16:43.474Z,100036.27
2023-02-09T17:19:18.307Z,100037.66
2023-02-09T17:21:50.513Z,100032.83
2023-02-09T17:24:22.751Z,100030.63
2023-02-09T17:26:55.287Z,100028.38
2023-02-09T17:29:27.592Z,100027.36
2023-02-09T17:32:01.861Z,100028.25
2023-02-09T17:34:34.192Z,100020.12
2023-02-09T17:37:06.689Z,100013.73
2023-02-09T17:39:39.138Z,100011.35
2023-02-09T17:42:21.947Z,100012.58
2023-02-09T17:44:54.873Z,100013.14
2023-02-09T17:47:28.161Z,100011.58
2023-02-09T17:50:00.388Z,100010.20
2023-02-09T17:52:32.879Z,100012.61
2023-02-09T17:55:05.307Z,100014.54
2023-02-09T17:57:37.592Z,100011.06
2023-02-09T18:00:12.382Z,100007.80
2023-02-09T18:02:45.433Z,100006.06
2023-02-09T18:05:22.137Z,99998.13
2023-02-09T18:07:55.014Z,99993.49
2023-02-09T18:10:27.408Z,99995.96
2023-02-09T18:12:59.614Z,99998.39
2023-02-09T18:15:35.523Z,100000.34
2023-02-09T18:18:08.102Z,100000.89
2023-02-09T18:20:41.145Z,99998.16
2023-02-09T18:23:16.437Z,99999.23
2023-02-09T18:25:49.911Z,100005.14
2023-02-09T18:28:22.735Z,100003.08
2023-02-09T18:30:55.048Z,100005.36
2023-02-09T18:33:27.237Z,100002.96
2023-02-09T18:35:59.424Z,100003.16
2023-02-09T18:38:31.676Z,99997.45
2023-02-09T18:41:04.063Z,99990.52
2023-02-09T18:43:37.474Z,99984.98
2023-02-09T18:46:11.985Z,99990.88
2023-02-09T18:48:44.285Z,99990.20
2023-02-09T18:51:17.404Z,99981.06
2023-02-09T18:53:51.255Z,99983.70
2023-02-09T18:56:25.861Z,99981.45
2023-02-09T18:58:58.132Z,99982.31
2023-02-09T19:01:30.321Z,99980.07
2023-02-09T19:04:04.100Z,99982.52
2023-02-09T19:06:37.560Z,99991.59
2023-02-09T19:09:10.787Z,99992.66
2023-02-09T19:11:58.575Z,99989.24
2023-02-09T19:14:40.488Z,99998.30
2023-02-09T19:17:23.630Z,100000.74
2023-02-09T19:20:09.291Z,100002.65
2023-02-09T19:22:51.921Z,100001.27
2023-02-09T19:25:27.663Z,100001.29
2023-02-09T19:28:03.025Z,99998.06
2023-02-09T19:30:41.430Z,99997.76
2023-02-09T19:33:15.588Z,99995.70
2023-02-09T19:35:48.041Z,99996.59
2023-02-09T19:38:24.331Z,99995.57
2023-02-09T19:41:10.498Z,99986.91
2023-02-09T19:43:44.468Z,99979.67
2023-02-09T19:46:17.955Z,99983.83
2023-02-09T19:48:50.520Z,99978.45
2023-02-09T19:51:24.807Z,99981.76
2023-02-09T19:53:56.896Z,99981.95
2023-02-09T19:56:29.339Z,99982.48
2023-02-09T19:59:02.328Z,99982.84
2023-02-09T20:01:34.792Z,99980.79
2023-02-09T20:04:07.339Z,99987.55
2023-02-09T20:06:39.576Z,99987.04
2023-02-09T20:09:12.452Z,99988.77
2023-02-09T20:11:44.789Z,99984.94
2023-02-09T20:14:17.000Z,99982.52
2023-02-09T20:16:49.264Z,99984.27
2023-02-09T20:19:27.261Z,99975.79
2023-02-09T20:21:59.844Z,99968.70
2023-02-09T20:24:32.119Z,99966.64
2023-02-09T20:27:04.997Z,99968.38
2023-02-09T20:29:40.114Z,99974.27
2023-02-09T20:32:15.310Z,99975.46
2023-02-09T20:34:50.462Z,99970.78
2023-02-09T20:37:22.829Z,99968.68
2023-02-09T20:39:55.541Z,99961.41
2023-02-09T20:42:45.928Z,99966.42
2023-02-09T20:45:36.644Z,99968.17
2023-02-09T20:48:10.458Z,99965.25
2023-02-09T20:50:42.713Z,99962.30
2023-02-09T20:53:15.177Z,99951.58
2023-02-09T20:55:47.561Z,99944.00
2023-02-09T20:58:24.757Z,99933.25
2023-02-09T21:00:57.089Z,99930.33
2023-02-09T21:03:29.543Z,99913.35
2023-02-09T21:08:42.881Z,99926.52
2023-02-09T21:11:17.530Z,99932.25
2023-02-09T21:13:55.788Z,99942.81
2023-02-09T21:16:28.741Z,99951.29
2023-02-09T21:19:01.893Z,99955.27
2023-02-09T21:21:34.700Z,99963.92
2023-02-09T21:24:12.134Z,99973.09
2023-02-09T21:26:44.472Z,99974.84
2023-02-09T21:29:20.652Z,99979.16
2023-02-09T21:31:55.324Z,99970.16
2023-02-09T21:34:27.577Z,99968.06
2023-02-09T21:36:59.989Z,99971.68
2023-02-09T21:39:34.428Z,99979.48
2023-02-09T21:42:24.284Z,99983.29
2023-02-09T21:44:58.609Z,99985.89
2023-02-09T21:47:32.817Z,99991.95
2023-02-09T21:50:05.697Z,99987.10
2023-02-09T21:52:38.774Z,99988.84
2023-02-09T21:55:11.366Z,99987.98
2023-02-09T21:57:43.669Z,100003.75
2023-02-09T22:00:17.999Z,100022.99
2023-02-09T22:02:54.555Z,100034.44
2023-02-09T22:05:27.135Z,100028.54
2023-02-09T22:07:59.415Z,100021.08
2023-02-09T22:10:31.616Z,100026.63
2023-02-09T22:13:08.598Z,100026.61
2023-02-09T22:15:44.364Z,100013.97
2023-02-09T22:18:18.076Z,100013.63
2023-02-09T22:20:51.590Z,100014.83
2023-02-09T22:23:27.124Z,100013.95
2023-02-09T22:26:02.895Z,100016.91
2023-02-09T22:28:36.681Z,100024.20
2023-02-09T22:31:19.805Z,100031.98
2023-02-09T22:33:55.242Z,100024.56
2023-02-09T22:36:31.194Z,100019.19
2023-02-09T22:39:07.660Z,100020.39
2023-02-09T22:41:40.106Z,100017.10
2023-02-09T22:44:17.991Z,100020.23
2023-02-09T22:46:50.318Z,100016.60
2023-02-09T22:49:24.113Z,100027.33
2023-02-09T22:52:01.757Z,100035.98
2023-02-09T22:54:36.254Z,100033.20
2023-02-09T22:57:13.416Z,100026.45
2023-02-09T22:59:52.076Z,100026.63
2023-02-09T23:02:29.945Z,100029.76
2023-02-09T23:05:05.583Z,100036.52
2023-02-09T23:07:38.005Z,100031.69
2023-02-09T23:10:14.287Z,100030.66
2023-02-09T23:12:49.584Z,100029.13
2023-02-09T23:15:27.870Z,100029.14
2023-02-09T23:18:09.428Z,100035.19
2023-02-09T23:20:47.769Z,100033.42
2023-02-09T23:23:24.941Z,100025.97
2023-02-09T23:26:02.831Z,100020.98
2023-02-09T23:28:40.317Z,100022.86
2023-02-09T23:31:19.062Z,100015.91
2023-02-09T23:34:04.266Z,100009.17
2023-02-09T23:36:39.682Z,99994.98
2023-02-09T23:39:25.899Z,99982.32
2023-02-09T23:41:59.387Z,99994.79
2023-02-09T23:44:32.240Z,99995.48
2023-02-09T23:47:04.491Z,99991.83
2023-02-09T23:49:40.267Z,99994.42
2023-02-09T23:52:12.504Z,99995.46
2023-02-09T23:54:45.120Z,99995.63
2023-02-09T23:57:17.980Z,99989.58
2023-02-09T23:59:50.929Z,99983.88
